createdAt,value
2023-01-06T00:03:51.150Z,13.30
2023-01-06T00:08:54.314Z,13.40
2023-01-06T00:13:59.409Z,13.40
2023-01-06T00:19:02.535Z,13.40
2023-01-06T00:24:05.712Z,13.40
2023-01-06T00:29:11.355Z,13.50
2023-01-06T00:34:14.357Z,13.50
2023-01-06T00:39:17.414Z,13.50
2023-01-06T00:44:21.859Z,13.50
2023-01-06T00:49:24.963Z,13.50
2023-01-06T00:54:28.158Z,13.50
2023-01-06T00:59:32.623Z,13.60
2023-01-06T01:04:38.137Z,13.50
2023-01-06T01:09:41.195Z,13.50
2023-01-06T01:14:48.948Z,13.50
2023-01-06T01:19:54.412Z,13.50
2023-01-06T01:24:57.492Z,13.50
2023-01-06T01:30:01.997Z,13.50
2023-01-06T01:35:05.238Z,13.50
2023-01-06T01:40:09.489Z,13.50
2023-01-06T01:45:24.679Z,13.50
2023-01-06T01:50:32.507Z,13.60
2023-01-06T01:55:38.304Z,13.50
2023-01-06T02:00:44.896Z,13.50
2023-01-06T02:05:51.389Z,13.50
2023-01-06T02:10:57.667Z,13.60
2023-01-06T02:16:23.050Z,13.60
2023-01-06T02:21:42.766Z,13.50
2023-01-06T02:27:22.834Z,13.50
2023-01-06T02:32:38.006Z,13.50
2023-01-06T02:37:55.333Z,13.50
2023-01-06T02:43:11.155Z,13.50
2023-01-06T02:48:24.412Z,13.50
2023-01-06T02:53:35.378Z,13.40
2023-01-06T02:58:45.647Z,13.40
2023-01-06T03:03:52.570Z,13.40
2023-01-06T03:08:59.393Z,13.40
2023-01-06T03:14:08.961Z,13.40
2023-01-06T03:19:13.834Z,13.40
2023-01-06T03:24:18.205Z,13.40
2023-01-06T03:29:24.187Z,13.30
2023-01-06T03:34:42.170Z,13.30
2023-01-06T03:39:54.152Z,13.20
2023-01-06T03:45:08.504Z,13.20
2023-01-06T03:50:33.934Z,13.10
2023-01-06T03:55:39.381Z,13.10
2023-01-06T04:00:43.079Z,13.10
2023-01-06T04:05:47.608Z,13.10
2023-01-06T04:10:51.284Z,13.10
2023-01-06T04:15:54.457Z,13.00
2023-01-06T04:20:58.844Z,13.00
2023-01-06T04:26:05.298Z,13.00
2023-01-06T04:31:17.232Z,13.00
2023-01-06T04:36:22.745Z,13.00
2023-01-06T04:41:29.753Z,13.00
2023-01-06T04:46:32.879Z,12.90
2023-01-06T04:51:37.172Z,12.90
2023-01-06T04:56:40.240Z,12.90
2023-01-06T05:01:43.261Z,12.90
2023-01-06T05:06:47.651Z,12.80
2023-01-06T05:11:50.531Z,12.80
2023-01-06T05:16:53.491Z,12.80
2023-01-06T05:21:57.766Z,12.80
2023-01-06T05:27:00.713Z,12.80
2023-01-06T05:32:03.830Z,12.80
2023-01-06T05:37:08.131Z,12.80
2023-01-06T05:42:11.177Z,12.80
2023-01-06T05:47:14.100Z,12.80
2023-01-06T05:52:18.387Z,12.70
2023-01-06T05:57:21.362Z,12.80
2023-01-06T06:02:24.303Z,12.70
2023-01-06T06:07:28.597Z,12.70
2023-01-06T06:12:31.631Z,12.70
2023-01-06T06:17:34.612Z,12.70
2023-01-06T06:22:39.489Z,12.70
2023-01-06T06:27:42.457Z,12.70
2023-01-06T06:32:45.425Z,12.70
2023-01-06T06:37:49.662Z,12.70
2023-01-06T06:42:53.113Z,12.70
2023-01-06T06:47:56.395Z,12.70
2023-01-06T06:53:00.703Z,12.70
2023-01-06T06:58:03.773Z,12.70
2023-01-06T07:03:06.698Z,12.60
2023-01-06T07:08:11.153Z,12.60
2023-01-06T07:13:14.139Z,12.60
2023-01-06T07:18:20.091Z,12.60
2023-01-06T07:23:49.510Z,12.60
2023-01-06T07:28:55.538Z,12.60
2023-01-06T07:33:58.490Z,12.60
2023-01-06T07:39:03.238Z,12.60
2023-01-06T07:44:06.398Z,12.60
2023-01-06T07:49:09.338Z,12.60
2023-01-06T07:54:13.728Z,12.60
2023-01-06T07:59:16.681Z,12.60
2023-01-06T08:04:19.755Z,12.60
2023-01-06T08:09:24.105Z,12.60
2023-01-06T08:14:27.029Z,12.60
2023-01-06T08:19:33.455Z,12.60
2023-01-06T08:24:37.735Z,12.60
2023-01-06T08:29:40.763Z,12.60
2023-01-06T08:34:43.705Z,12.60
2023-01-06T08:39:48.214Z,12.60
2023-01-06T08:44:51.185Z,12.60
2023-01-06T08:49:54.432Z,12.60
2023-01-06T08:54:59.877Z,12.60
2023-01-06T09:00:03.003Z,12.60
2023-01-06T09:05:06.700Z,12.60
2023-01-06T09:10:12.264Z,12.60
2023-01-06T09:15:15.761Z,12.60
2023-01-06T09:20:18.938Z,12.60
2023-01-06T09:25:23.203Z,12.60
2023-01-06T09:30:26.326Z,12.60
2023-01-06T09:35:29.335Z,12.70
2023-01-06T09:40:45.928Z,12.70
2023-01-06T09:45:53.204Z,12.70
2023-01-06T09:51:01.079Z,12.70
2023-01-06T09:56:09.397Z,12.70
2023-01-06T10:01:16.981Z,12.70
2023-01-06T10:06:31.319Z,12.80
2023-01-06T10:11:43.866Z,12.90
2023-01-06T10:17:07.748Z,12.90
2023-01-06T10:22:19.757Z,12.90
2023-01-06T10:27:27.978Z,12.90
2023-01-06T10:32:35.007Z,13.00
2023-01-06T10:37:40.891Z,13.00
2023-01-06T10:42:57.665Z,13.00
2023-01-06T10:48:01.951Z,13.00
2023-01-06T10:53:05.472Z,13.10
2023-01-06T10:58:19.283Z,13.10
2023-01-06T11:03:36.899Z,13.10
2023-01-06T11:08:41.099Z,13.10
2023-01-06T11:13:50.821Z,13.10
2023-01-06T11:18:55.917Z,13.10
2023-01-06T11:24:16.847Z,13.20
2023-01-06T11:29:26.695Z,13.20
2023-01-06T11:34:33.080Z,13.20
2023-01-06T11:39:37.752Z,13.30
2023-01-06T11:44:44.073Z,13.30
2023-01-06T11:49:49.834Z,13.30
2023-01-06T11:55:02.111Z,13.40
2023-01-06T12:00:33.292Z,13.40
2023-01-06T12:05:40.049Z,13.40
2023-01-06T12:10:46.274Z,13.40
2023-01-06T12:15:58.164Z,13.40
2023-01-06T12:21:02.997Z,13.40
2023-01-06T12:26:11.309Z,13.40
2023-01-06T12:31:19.323Z,13.40
2023-01-06T12:36:33.171Z,13.50
2023-01-06T12:41:40.660Z,13.40
2023-01-06T12:46:51.453Z,13.50
2023-01-06T12:51:57.155Z,13.50
2023-01-06T12:57:17.363Z,13.50
2023-01-06T13:02:41.447Z,13.60
2023-01-06T13:07:53.763Z,13.60
2023-01-06T13:13:10.155Z,13.60
2023-01-06T13:18:21.273Z,13.60
2023-01-06T13:23:51.559Z,13.60
2023-01-06T13:29:03.118Z,13.60
2023-01-06T13:34:40.447Z,13.70
2023-01-06T13:39:46.822Z,13.60
2023-01-06T13:44:50.646Z,13.60
2023-01-06T13:49:54.977Z,13.70
2023-01-06T13:55:03.958Z,13.70
2023-01-06T14:00:17.627Z,13.70
2023-01-06T14:12:24.921Z,13.70
2023-01-06T14:17:42.276Z,13.70
2023-01-06T14:22:58.115Z,13.70
2023-01-06T14:28:24.585Z,13.70
2023-01-06T14:33:36.012Z,13.70
2023-01-06T14:38:44.838Z,13.70
2023-01-06T14:43:54.115Z,13.70
2023-01-06T14:49:00.885Z,13.70
2023-01-06T14:54:06.658Z,13.70
2023-01-06T14:59:15.815Z,13.70
2023-01-06T15:04:24.490Z,13.70
2023-01-06T15:09:27.849Z,13.70
2023-01-06T15:14:34.432Z,13.70
2023-01-06T15:19:37.761Z,13.70
2023-01-06T15:24:48.431Z,13.70
2023-01-06T15:29:53.711Z,13.70
2023-01-06T15:34:59.444Z,13.70
2023-01-06T15:40:02.946Z,13.70
2023-01-06T15:45:23.155Z,13.70
2023-01-06T15:50:28.243Z,13.70
2023-01-06T15:55:33.218Z,13.70
2023-01-06T16:00:44.037Z,13.70
2023-01-06T16:05:50.990Z,13.70
2023-01-06T16:11:40.815Z,13.70
2023-01-06T16:16:45.137Z,13.70
2023-01-06T16:21:51.900Z,13.60
2023-01-06T16:26:56.918Z,13.60
2023-01-06T16:32:20.800Z,13.60
2023-01-06T16:37:23.726Z,13.60
2023-01-06T16:42:40.678Z,13.60
2023-01-06T16:47:45.933Z,13.60
2023-01-06T16:52:52.566Z,13.50
2023-01-06T16:57:58.081Z,13.50
2023-01-06T17:03:02.353Z,13.40
2023-01-06T17:08:10.368Z,13.40
2023-01-06T17:13:34.080Z,13.40
2023-01-06T17:18:44.619Z,13.40
2023-01-06T17:23:49.948Z,13.40
2023-01-06T17:28:54.658Z,13.40
2023-01-06T17:34:02.580Z,13.40
2023-01-06T17:39:15.177Z,13.40
2023-01-06T17:44:20.187Z,13.40
2023-01-06T17:49:34.976Z,13.40
2023-01-06T17:54:55.258Z,13.40
2023-01-06T17:59:58.744Z,13.40
2023-01-06T18:05:12.172Z,13.40
2023-01-06T18:10:18.700Z,13.40
2023-01-06T18:15:31.251Z,13.40
2023-01-06T18:20:35.486Z,13.40
2023-01-06T18:25:39.643Z,13.40
2023-01-06T18:30:42.769Z,13.40
2023-01-06T18:35:50.645Z,13.30
2023-01-06T18:40:53.967Z,13.30
2023-01-06T18:46:01.869Z,13.30
2023-01-06T18:51:17.416Z,13.30
2023-01-06T18:56:23.544Z,13.30
2023-01-06T19:01:30.342Z,13.30
2023-01-06T19:06:40.782Z,13.30
2023-01-06T19:11:43.972Z,13.30
2023-01-06T19:16:51.840Z,13.30
2023-01-06T19:22:07.613Z,13.30
2023-01-06T19:27:33.997Z,13.30
2023-01-06T19:32:37.256Z,13.30
2023-01-06T19:37:41.511Z,13.30
2023-01-06T19:42:44.440Z,13.20
2023-01-06T19:47:47.350Z,13.20
2023-01-06T19:52:56.708Z,13.30
2023-01-06T19:58:01.666Z,13.20
2023-01-06T20:03:05.118Z,13.20
2023-01-06T20:08:09.432Z,13.20
2023-01-06T20:13:12.374Z,13.30
2023-01-06T20:18:15.433Z,13.30
2023-01-06T20:23:19.707Z,13.30
2023-01-06T20:28:24.001Z,13.30
2023-01-06T20:33:26.893Z,13.30
2023-01-06T20:38:31.139Z,13.30
2023-01-06T20:43:34.087Z,13.30
2023-01-06T20:48:37.015Z,13.20
2023-01-06T20:53:41.311Z,13.30
2023-01-06T20:58:44.201Z,13.20
2023-01-06T21:03:47.107Z,13.30
2023-01-06T21:08:51.377Z,13.30
2023-01-06T21:13:54.293Z,13.30
2023-01-06T21:18:57.397Z,13.30
2023-01-06T21:24:01.646Z,13.30
2023-01-06T21:29:04.699Z,13.30
2023-01-06T21:34:07.666Z,13.30
2023-01-06T21:39:12.048Z,13.30
2023-01-06T21:44:14.928Z,13.30
2023-01-06T21:49:17.814Z,13.30
2023-01-06T21:54:22.175Z,13.30
2023-01-06T21:59:25.250Z,13.20
2023-01-06T22:04:28.170Z,13.20
2023-01-06T22:09:33.021Z,13.20
2023-01-06T22:14:36.286Z,13.20
2023-01-06T22:19:40.017Z,13.20
2023-01-06T22:24:45.185Z,13.20
2023-01-06T22:29:48.086Z,13.20
2023-01-06T22:34:51.052Z,13.20
2023-01-06T22:39:55.286Z,13.10
2023-01-06T22:44:58.337Z,13.10
2023-01-06T22:50:02.015Z,13.10
2023-01-06T22:55:07.359Z,13.00
2023-01-06T23:00:15.896Z,13.00
2023-01-06T23:05:19.141Z,13.00
2023-01-06T23:10:23.406Z,13.00
2023-01-06T23:15:27.405Z,13.00
2023-01-06T23:20:30.626Z,13.00
2023-01-06T23:25:34.878Z,13.00
2023-01-06T23:30:37.816Z,12.90
2023-01-06T23:35:41.007Z,12.90
2023-01-06T23:40:45.245Z,12.90
2023-01-06T23:45:48.187Z,12.90
2023-01-06T23:50:51.566Z,12.90
2023-01-06T23:56:00.853Z,12.90
